Time;durP1;ratioP1;P1;durP2;ratioP2;P2;SDS_P1;SDS_P2;PMS_P1;PMS_P2;Temp;Humidity;BMP_temperature;BMP_pressure;BME280_temperature;BME280_humidity;BME280_pressure;Samples;Min_cycle;Max_cycle;Signal;HPM_P1;HPM_P2
2024/01/23 00:02:05;;;;;;;6.97;1.65;;;;;;;;;;5020547;28;41539;-65
2024/01/23 00:04:34;;;;;;;13.38;3.05;;;;;;;;;;5022389;28;42638;-65
2024/01/23 00:07:02;;;;;;;8.32;2.55;;;;;;;;;;5027628;28;42623;-65
2024/01/23 00:09:30;;;;;;;9.07;2.08;;;;;;;;;;5028325;28;41111;-65
2024/01/23 00:12:01;;;;;;;7.32;2.50;;;;;;;;;;5024549;28;43149;-65
2024/01/23 00:14:29;;;;;;;7.70;2.13;;;;;;;;;;5018147;28;42958;-65
2024/01/23 00:16:57;;;;;;;8.18;2.22;;;;;;;;;;5026277;28;42490;-65
2024/01/23 00:19:25;;;;;;;11.07;2.50;;;;;;;;;;5027520;28;41911;-65
2024/01/23 00:21:53;;;;;;;6.15;1.98;;;;;;;;;;5012383;28;42358;-65
2024/01/23 00:24:21;;;;;;;12.00;2.60;;;;;;;;;;5027427;28;42685;-64
2024/01/23 00:26:49;;;;;;;6.30;2.03;;;;;;;;;;5012964;28;42614;-65
2024/01/23 00:29:21;;;;;;;6.50;1.70;;;;;;;;;;5012887;28;40917;-65
2024/01/23 00:31:49;;;;;;;7.40;2.60;;;;;;;;;;5014421;28;41646;-64
2024/01/23 00:34:17;;;;;;;6.07;2.08;;;;;;;;;;5025789;28;41959;-64
2024/01/23 00:36:45;;;;;;;7.00;1.70;;;;;;;;;;5026214;28;41318;-65
2024/01/23 00:39:13;;;;;;;10.65;2.20;;;;;;;;;;5026994;28;42769;-64
2024/01/23 00:41:41;;;;;;;10.05;2.30;;;;;;;;;;5026295;28;42273;-64
2024/01/23 00:44:09;;;;;;;7.00;2.40;;;;;;;;;;5026492;28;42308;-64
2024/01/23 00:46:39;;;;;;;6.13;2.40;;;;;;;;;;5027220;28;41975;-64
2024/01/23 00:49:06;;;;;;;10.20;2.40;;;;;;;;;;5026487;28;42037;-64
2024/01/23 00:51:35;;;;;;;6.63;1.95;;;;;;;;;;5026269;28;41704;-65
2024/01/23 00:54:03;;;;;;;8.30;2.28;;;;;;;;;;5014801;28;41933;-65
2024/01/23 00:56:31;;;;;;;7.82;2.33;;;;;;;;;;5022700;28;41345;-65
2024/01/23 00:58:58;;;;;;;5.30;1.60;;;;;;;;;;5026145;28;41427;-65
2024/01/23 01:01:27;;;;;;;6.03;2.13;;;;;;;;;;5026751;28;41372;-64
2024/01/23 01:03:56;;;;;;;8.65;2.50;;;;;;;;;;5022433;28;42691;-64
2024/01/23 01:06:24;;;;;;;7.50;1.85;;;;;;;;;;5017922;28;42034;-65
2024/01/23 01:08:52;;;;;;;7.60;1.95;;;;;;;;;;5027142;28;42914;-65
2024/01/23 01:11:20;;;;;;;5.68;1.73;;;;;;;;;;5026214;28;42681;-65
2024/01/23 01:13:48;;;;;;;8.15;1.88;;;;;;;;;;5024500;28;41923;-64
2024/01/23 01:16:16;;;;;;;7.25;1.58;;;;;;;;;;5017649;28;42200;-65
2024/01/23 01:18:45;;;;;;;10.85;1.70;;;;;;;;;;5020252;28;41444;-65
2024/01/23 01:21:14;;;;;;;6.30;1.73;;;;;;;;;;5021348;28;41076;-64
2024/01/23 01:23:43;;;;;;;6.85;1.65;;;;;;;;;;5025835;28;42627;-64
2024/01/23 01:26:11;;;;;;;6.97;1.83;;;;;;;;;;5026013;28;42049;-64
2024/01/23 01:28:39;;;;;;;9.45;1.98;;;;;;;;;;5012568;28;41196;-64
2024/01/23 01:31:07;;;;;;;5.70;2.08;;;;;;;;;;5018905;28;42006;-64
2024/01/23 01:33:35;;;;;;;6.88;2.00;;;;;;;;;;5015963;28;42810;-64
2024/01/23 01:36:03;;;;;;;5.68;1.40;;;;;;;;;;5026587;28;40928;-64
2024/01/23 01:38:34;;;;;;;8.50;2.63;;;;;;;;;;5026164;28;41696;-64
2024/01/23 01:41:14;;;;;;;6.38;2.22;;;;;;;;;;5023391;28;40791;-64
2024/01/23 01:43:42;;;;;;;6.38;2.30;;;;;;;;;;5026050;28;42222;-64
2024/01/23 01:46:12;;;;;;;7.88;2.17;;;;;;;;;;5025857;28;42733;-64
2024/01/23 01:48:40;;;;;;;7.63;2.30;;;;;;;;;;5026883;28;41200;-64
2024/01/23 01:51:08;;;;;;;7.38;2.10;;;;;;;;;;5016490;28;42182;-64
2024/01/23 01:53:37;;;;;;;8.52;3.60;;;;;;;;;;5021935;28;42077;-64
2024/01/23 01:56:06;;;;;;;6.95;1.90;;;;;;;;;;5027009;28;41077;-64
2024/01/23 01:58:34;;;;;;;7.07;2.10;;;;;;;;;;5026932;28;42706;-64
2024/01/23 02:01:02;;;;;;;7.95;1.70;;;;;;;;;;5025517;28;41057;-64
2024/01/23 02:03:29;;;;;;;8.55;2.20;;;;;;;;;;5026378;28;41710;-65
2024/01/23 02:05:58;;;;;;;7.05;2.20;;;;;;;;;;5026473;28;42631;-64
2024/01/23 02:08:26;;;;;;;7.13;2.08;;;;;;;;;;5025245;28;41059;-64
2024/01/23 02:10:55;;;;;;;7.00;2.42;;;;;;;;;;5026349;28;42657;-64
2024/01/23 02:13:23;;;;;;;7.57;1.90;;;;;;;;;;5025928;28;41355;-64
2024/01/23 02:15:51;;;;;;;8.52;1.70;;;;;;;;;;5025042;28;42312;-64
2024/01/23 02:18:19;;;;;;;8.00;1.83;;;;;;;;;;5014156;28;41650;-64
2024/01/23 02:20:47;;;;;;;7.40;2.30;;;;;;;;;;5026095;28;42364;-64
2024/01/23 02:23:15;;;;;;;6.18;2.10;;;;;;;;;;5024692;28;42650;-64
2024/01/23 02:25:44;;;;;;;5.45;1.50;;;;;;;;;;5025945;28;41549;-64
2024/01/23 02:28:15;;;;;;;5.47;1.90;;;;;;;;;;5025529;28;41377;-64
2024/01/23 02:30:43;;;;;;;6.03;1.90;;;;;;;;;;5025896;28;42649;-64
2024/01/23 02:33:12;;;;;;;8.43;1.88;;;;;;;;;;5025430;28;41853;-64
2024/01/23 02:35:40;;;;;;;6.95;1.83;;;;;;;;;;5008655;28;42330;-64
2024/01/23 02:38:08;;;;;;;6.13;1.98;;;;;;;;;;5014887;28;41265;-64
2024/01/23 02:40:36;;;;;;;6.75;2.05;;;;;;;;;;5026157;28;41342;-65
2024/01/23 02:43:05;;;;;;;8.23;1.80;;;;;;;;;;5024772;28;41007;-64
2024/01/23 02:45:33;;;;;;;7.20;1.75;;;;;;;;;;5025657;28;40029;-65
2024/01/23 02:48:01;;;;;;;4.10;1.67;;;;;;;;;;5021609;28;42886;-65
2024/01/23 02:50:29;;;;;;;5.00;1.60;;;;;;;;;;5024493;28;42987;-65
2024/01/23 02:52:57;;;;;;;6.40;1.98;;;;;;;;;;5024290;28;41738;-64
2024/01/23 02:55:25;;;;;;;4.68;1.60;;;;;;;;;;5025467;28;41157;-66
2024/01/23 02:57:53;;;;;;;7.88;1.88;;;;;;;;;;5023947;28;41566;-65
2024/01/23 03:00:22;;;;;;;5.75;2.05;;;;;;;;;;5023372;28;41831;-64
2024/01/23 03:02:50;;;;;;;6.70;1.83;;;;;;;;;;5018395;28;41024;-65
2024/01/23 03:05:18;;;;;;;6.47;1.65;;;;;;;;;;5024385;28;42667;-65
2024/01/23 03:07:46;;;;;;;5.63;1.95;;;;;;;;;;5025028;28;40807;-65
2024/01/23 03:10:14;;;;;;;4.30;1.50;;;;;;;;;;5024938;28;41228;-65
2024/01/23 03:12:42;;;;;;;4.68;1.83;;;;;;;;;;5024547;28;41926;-65
2024/01/23 03:15:10;;;;;;;5.97;1.48;;;;;;;;;;5024599;28;40764;-65
2024/01/23 03:17:40;;;;;;;6.35;2.05;;;;;;;;;;5016772;28;41386;-65
2024/01/23 03:20:08;;;;;;;6.22;1.80;;;;;;;;;;5005738;28;41658;-64
2024/01/23 03:22:36;;;;;;;8.70;2.15;;;;;;;;;;5024641;28;42238;-65
2024/01/23 03:25:05;;;;;;;7.47;1.88;;;;;;;;;;5023833;28;42095;-65
2024/01/23 03:27:33;;;;;;;6.90;1.75;;;;;;;;;;5024411;28;41781;-64
2024/01/23 03:30:01;;;;;;;6.38;2.15;;;;;;;;;;5016293;28;42250;-65
2024/01/23 03:32:29;;;;;;;4.78;1.38;;;;;;;;;;5022511;28;42233;-65
2024/01/23 03:34:59;;;;;;;5.47;1.73;;;;;;;;;;5023909;28;42213;-64
2024/01/23 03:37:27;;;;;;;3.80;1.55;;;;;;;;;;5024050;28;41617;-65
2024/01/23 03:39:56;;;;;;;6.68;2.10;;;;;;;;;;5023792;28;41732;-64
2024/01/23 03:42:24;;;;;;;6.47;2.67;;;;;;;;;;5024529;28;41819;-65
2024/01/23 03:44:53;;;;;;;5.43;1.67;;;;;;;;;;5020785;28;42499;-64
2024/01/23 03:47:21;;;;;;;6.10;2.22;;;;;;;;;;5016282;28;42073;-65
2024/01/23 03:49:48;;;;;;;5.72;1.45;;;;;;;;;;5025041;28;41616;-65
2024/01/23 03:52:18;;;;;;;4.63;1.63;;;;;;;;;;5024820;28;41975;-65
2024/01/23 03:54:46;;;;;;;6.65;2.28;;;;;;;;;;5015658;28;42284;-64
2024/01/23 03:57:14;;;;;;;6.70;1.98;;;;;;;;;;5019849;28;42589;-65
2024/01/23 03:59:43;;;;;;;7.15;3.03;;;;;;;;;;5023636;28;42153;-65
2024/01/23 04:02:11;;;;;;;5.32;2.20;;;;;;;;;;5026498;28;41338;-65
2024/01/23 04:04:39;;;;;;;8.38;2.30;;;;;;;;;;5027654;28;43218;-65
2024/01/23 04:07:07;;;;;;;4.18;1.50;;;;;;;;;;5027294;28;42650;-65
2024/01/23 04:09:37;;;;;;;7.57;2.25;;;;;;;;;;5028484;28;40860;-65
2024/01/23 04:12:05;;;;;;;6.78;1.70;;;;;;;;;;5027987;28;42317;-65
2024/01/23 04:14:33;;;;;;;6.03;2.20;;;;;;;;;;5027135;28;41223;-65
2024/01/23 04:17:01;;;;;;;7.32;2.45;;;;;;;;;;5024889;28;41900;-65
2024/01/23 04:19:29;;;;;;;8.15;1.80;;;;;;;;;;5028341;28;42018;-65
2024/01/23 04:21:57;;;;;;;7.03;1.90;;;;;;;;;;5025787;28;41584;-65
2024/01/23 04:24:25;;;;;;;7.03;2.13;;;;;;;;;;5028058;28;41999;-64
2024/01/23 04:26:54;;;;;;;8.68;2.55;;;;;;;;;;5026581;28;41620;-65
2024/01/23 04:29:22;;;;;;;6.13;1.67;;;;;;;;;;5027212;28;40908;-64
2024/01/23 04:31:50;;;;;;;5.35;1.60;;;;;;;;;;5027060;28;41505;-65
2024/01/23 04:34:18;;;;;;;6.53;2.40;;;;;;;;;;5015184;28;41100;-64
2024/01/23 04:36:47;;;;;;;4.95;1.30;;;;;;;;;;5026629;28;41390;-64
2024/01/23 04:39:15;;;;;;;5.50;1.95;;;;;;;;;;5027102;28;42689;-65
2024/01/23 04:41:43;;;;;;;6.47;2.25;;;;;;;;;;5027459;28;40831;-64
2024/01/23 04:44:12;;;;;;;5.95;1.90;;;;;;;;;;5026833;28;41734;-65
2024/01/23 04:46:40;;;;;;;5.32;1.70;;;;;;;;;;5021432;28;43125;-64
2024/01/23 04:49:09;;;;;;;5.50;1.85;;;;;;;;;;5026366;28;40748;-65
2024/01/23 04:51:36;;;;;;;5.30;1.88;;;;;;;;;;5027888;28;41388;-64
2024/01/23 04:54:04;;;;;;;5.70;1.50;;;;;;;;;;5026425;28;42497;-65
2024/01/23 04:56:32;;;;;;;7.10;2.22;;;;;;;;;;5026286;28;41268;-65
2024/01/23 04:59:00;;;;;;;4.95;1.65;;;;;;;;;;5026852;28;42738;-65
2024/01/23 05:01:30;;;;;;;6.22;1.55;;;;;;;;;;5028700;28;41481;-64
2024/01/23 05:03:58;;;;;;;6.82;2.25;;;;;;;;;;5026129;28;42767;-65
2024/01/23 05:06:26;;;;;;;7.00;2.30;;;;;;;;;;5016790;28;42609;-64
2024/01/23 05:08:54;;;;;;;6.00;1.83;;;;;;;;;;5020414;28;41378;-64
2024/01/23 05:11:22;;;;;;;5.90;1.83;;;;;;;;;;5019117;28;41731;-64
2024/01/23 05:13:50;;;;;;;7.90;1.70;;;;;;;;;;5014955;28;41816;-64
2024/01/23 05:16:18;;;;;;;6.43;1.90;;;;;;;;;;5015365;28;41551;-64
2024/01/23 05:18:48;;;;;;;4.80;1.90;;;;;;;;;;5026910;28;42357;-64
2024/01/23 05:21:16;;;;;;;8.40;2.13;;;;;;;;;;5014736;28;41804;-64
2024/01/23 05:23:44;;;;;;;5.75;2.15;;;;;;;;;;5024448;28;42719;-64
2024/01/23 05:26:12;;;;;;;5.03;1.70;;;;;;;;;;5018892;28;41660;-63
2024/01/23 05:28:40;;;;;;;5.82;1.80;;;;;;;;;;5013727;28;41577;-64
2024/01/23 05:31:08;;;;;;;6.07;1.90;;;;;;;;;;5015226;28;42438;-65
2024/01/23 05:33:36;;;;;;;6.47;2.13;;;;;;;;;;5024315;28;42750;-64
2024/01/23 05:36:06;;;;;;;6.95;1.95;;;;;;;;;;5020875;28;41031;-64
2024/01/23 05:38:34;;;;;;;8.48;1.83;;;;;;;;;;5008181;28;43390;-64
2024/01/23 05:41:03;;;;;;;8.95;2.70;;;;;;;;;;5013177;28;42314;-64
2024/01/23 05:43:31;;;;;;;10.18;2.33;;;;;;;;;;5012785;28;42212;-64
2024/01/23 05:45:59;;;;;;;5.00;1.85;;;;;;;;;;5016536;28;42617;-64
2024/01/23 05:48:27;;;;;;;7.70;2.35;;;;;;;;;;5020083;28;40984;-64
2024/01/23 05:50:55;;;;;;;7.82;1.65;;;;;;;;;;5021619;28;41107;-64
2024/01/23 05:53:25;;;;;;;4.57;2.03;;;;;;;;;;5025856;28;42269;-64
2024/01/23 05:55:53;;;;;;;5.68;2.13;;;;;;;;;;5025872;28;42202;-64
2024/01/23 05:58:21;;;;;;;4.93;1.80;;;;;;;;;;5026397;28;41464;-63
2024/01/23 06:00:49;;;;;;;6.45;1.90;;;;;;;;;;5026329;28;42985;-64
2024/01/23 06:03:17;;;;;;;7.72;2.00;;;;;;;;;;5025575;28;41820;-64
2024/01/23 06:05:45;;;;;;;8.75;2.10;;;;;;;;;;5026548;28;42348;-64
2024/01/23 06:08:13;;;;;;;4.72;1.67;;;;;;;;;;5025321;28;40884;-64
2024/01/23 06:10:42;;;;;;;4.32;1.58;;;;;;;;;;5026379;28;41728;-64
2024/01/23 06:13:10;;;;;;;6.45;1.60;;;;;;;;;;5025229;28;41775;-64
2024/01/23 06:15:38;;;;;;;6.72;1.88;;;;;;;;;;5025197;28;41745;-64
2024/01/23 06:18:07;;;;;;;5.38;1.65;;;;;;;;;;5025923;28;42251;-64
2024/01/23 06:20:35;;;;;;;5.95;1.70;;;;;;;;;;5026417;28;41658;-64
2024/01/23 06:23:04;;;;;;;4.60;1.88;;;;;;;;;;5025413;28;41531;-64
2024/01/23 06:25:32;;;;;;;5.43;1.70;;;;;;;;;;5025400;28;42796;-65
2024/01/23 06:28:02;;;;;;;8.13;1.90;;;;;;;;;;5016680;28;41796;-64
2024/01/23 06:30:30;;;;;;;4.80;1.85;;;;;;;;;;5009237;28;42334;-63
2024/01/23 06:32:58;;;;;;;8.82;1.80;;;;;;;;;;5018333;28;43086;-64
2024/01/23 06:35:26;;;;;;;5.68;1.70;;;;;;;;;;5023213;28;41581;-64
2024/01/23 06:37:54;;;;;;;7.30;1.92;;;;;;;;;;5025797;28;41514;-64
2024/01/23 06:40:23;;;;;;;7.78;1.88;;;;;;;;;;5025686;28;41841;-64
2024/01/23 06:42:51;;;;;;;5.53;1.75;;;;;;;;;;5025059;28;41321;-65
2024/01/23 06:45:20;;;;;;;5.32;1.92;;;;;;;;;;5025628;28;41938;-64
2024/01/23 06:47:48;;;;;;;4.45;1.58;;;;;;;;;;5019010;28;42850;-64
2024/01/23 06:50:16;;;;;;;6.43;2.08;;;;;;;;;;5025435;28;41259;-64
2024/01/23 06:52:44;;;;;;;5.78;1.98;;;;;;;;;;5025329;28;42065;-64
2024/01/23 06:55:12;;;;;;;6.38;2.10;;;;;;;;;;5025634;28;40774;-64
2024/01/23 06:57:40;;;;;;;5.63;1.83;;;;;;;;;;5024230;28;42203;-64
2024/01/23 07:00:09;;;;;;;6.75;2.08;;;;;;;;;;5024023;28;41787;-64
2024/01/23 07:02:38;;;;;;;6.35;1.60;;;;;;;;;;5024915;28;40945;-64
2024/01/23 07:05:06;;;;;;;5.22;1.70;;;;;;;;;;5006332;28;41513;-64
2024/01/23 07:07:34;;;;;;;5.25;1.60;;;;;;;;;;5005884;28;41218;-64
2024/01/23 07:10:02;;;;;;;4.15;1.88;;;;;;;;;;5007454;28;42522;-64
2024/01/23 07:12:30;;;;;;;8.73;2.38;;;;;;;;;;5008924;28;42475;-64
2024/01/23 07:14:58;;;;;;;7.40;2.15;;;;;;;;;;5008874;28;41028;-64
2024/01/23 07:17:27;;;;;;;6.85;1.42;;;;;;;;;;5012225;28;41139;-64
2024/01/23 07:19:56;;;;;;;4.75;1.67;;;;;;;;;;5009688;28;41936;-65
2024/01/23 07:22:24;;;;;;;9.25;2.38;;;;;;;;;;5013932;28;42375;-67
2024/01/23 07:24:52;;;;;;;9.93;2.58;;;;;;;;;;5026422;28;41248;-68
2024/01/23 07:27:20;;;;;;;9.07;1.98;;;;;;;;;;5025173;28;41116;-69
2024/01/23 07:29:48;;;;;;;9.18;2.30;;;;;;;;;;5013419;28;41359;-69
2024/01/23 07:32:16;;;;;;;8.98;2.30;;;;;;;;;;5024666;28;40839;-68
2024/01/23 07:34:44;;;;;;;14.60;2.53;;;;;;;;;;5025050;28;41592;-69
2024/01/23 07:37:14;;;;;;;10.85;2.28;;;;;;;;;;5026366;28;41511;-69
2024/01/23 07:39:41;;;;;;;12.85;2.83;;;;;;;;;;5019195;28;42420;-68
2024/01/23 07:42:09;;;;;;;18.50;2.88;;;;;;;;;;5026438;28;41947;-71
2024/01/23 07:44:39;;;;;;;8.95;2.55;;;;;;;;;;5019744;28;41643;-71
2024/01/23 07:47:07;;;;;;;9.13;2.60;;;;;;;;;;5019379;28;41474;-70
2024/01/23 07:49:35;;;;;;;11.98;2.72;;;;;;;;;;5028992;28;41655;-70
2024/01/23 07:52:04;;;;;;;14.27;3.17;;;;;;;;;;5022828;28;41937;-68
2024/01/23 07:54:33;;;;;;;7.80;2.38;;;;;;;;;;5026922;28;42616;-70
2024/01/23 07:57:01;;;;;;;13.85;2.45;;;;;;;;;;5025008;28;41664;-71
2024/01/23 07:59:29;;;;;;;13.70;2.55;;;;;;;;;;5009589;28;42415;-70
2024/01/23 08:01:57;;;;;;;10.38;2.40;;;;;;;;;;5022514;28;41483;-72
2024/01/23 08:04:25;;;;;;;9.82;2.30;;;;;;;;;;5022810;28;41077;-70
2024/01/23 08:06:54;;;;;;;8.07;2.60;;;;;;;;;;5026911;28;42003;-73
2024/01/23 08:09:22;;;;;;;8.32;2.58;;;;;;;;;;5019535;28;41139;-72
2024/01/23 08:11:52;;;;;;;7.95;2.50;;;;;;;;;;5028195;28;43692;-70
2024/01/23 08:14:20;;;;;;;9.50;2.95;;;;;;;;;;5028073;28;41980;-70
2024/01/23 08:16:48;;;;;;;8.60;2.60;;;;;;;;;;5018510;28;41810;-67
2024/01/23 08:19:16;;;;;;;9.70;2.25;;;;;;;;;;5025095;28;42625;-67
2024/01/23 08:21:45;;;;;;;7.60;2.35;;;;;;;;;;5023270;28;41625;-68
2024/01/23 08:24:13;;;;;;;10.60;3.10;;;;;;;;;;5027719;28;41219;-68
2024/01/23 08:26:41;;;;;;;9.07;2.55;;;;;;;;;;5026461;28;43123;-67
2024/01/23 08:29:10;;;;;;;9.05;2.50;;;;;;;;;;5025160;28;41867;-68
2024/01/23 08:31:38;;;;;;;11.27;3.10;;;;;;;;;;5025966;28;41498;-71
2024/01/23 08:34:06;;;;;;;8.80;2.70;;;;;;;;;;5027445;28;40828;-69
2024/01/23 08:36:34;;;;;;;5.28;2.13;;;;;;;;;;5025414;28;41702;-69
2024/01/23 08:39:03;;;;;;;10.00;2.85;;;;;;;;;;5023921;28;42157;-69
2024/01/23 08:41:31;;;;;;;9.85;3.08;;;;;;;;;;5027033;28;42249;-69
2024/01/23 08:43:59;;;;;;;6.95;2.70;;;;;;;;;;5027801;28;42657;-69
2024/01/23 08:46:29;;;;;;;9.20;2.45;;;;;;;;;;5026390;28;42713;-69
2024/01/23 08:48:57;;;;;;;8.55;2.20;;;;;;;;;;5026077;28;41490;-69
2024/01/23 08:51:26;;;;;;;8.57;2.90;;;;;;;;;;5025826;28;42191;-69
2024/01/23 08:53:54;;;;;;;7.28;2.38;;;;;;;;;;5027327;28;33312;-72
2024/01/23 08:56:23;;;;;;;8.80;2.58;;;;;;;;;;5018576;28;41316;-70
2024/01/23 08:58:51;;;;;;;12.82;2.50;;;;;;;;;;5013232;28;42666;-70
2024/01/23 09:01:19;;;;;;;9.13;2.50;;;;;;;;;;5020883;28;41808;-71
2024/01/23 09:03:48;;;;;;;6.00;2.08;;;;;;;;;;5018411;28;39887;-72
2024/01/23 09:06:16;;;;;;;10.38;3.50;;;;;;;;;;5019288;28;43167;-71
2024/01/23 09:08:44;;;;;;;7.53;2.17;;;;;;;;;;5022263;28;41943;-71
2024/01/23 09:11:12;;;;;;;8.48;2.15;;;;;;;;;;5017890;28;41541;-73
2024/01/23 09:13:40;;;;;;;10.80;2.90;;;;;;;;;;5023884;28;42066;-71
2024/01/23 09:16:08;;;;;;;9.35;2.25;;;;;;;;;;5017625;28;41877;-71
2024/01/23 09:18:37;;;;;;;10.65;2.03;;;;;;;;;;5020510;28;42339;-72
2024/01/23 09:21:07;;;;;;;10.80;2.55;;;;;;;;;;5019076;28;41605;-71
2024/01/23 09:23:38;;;;;;;8.25;2.60;;;;;;;;;;5013492;28;42308;-71
2024/01/23 09:26:06;;;;;;;5.22;2.00;;;;;;;;;;5019468;28;41992;-71
2024/01/23 09:28:33;;;;;;;9.85;2.67;;;;;;;;;;5024298;28;42012;-71
2024/01/23 09:31:01;;;;;;;7.88;2.20;;;;;;;;;;5025600;28;42172;-71
2024/01/23 09:33:29;;;;;;;9.35;2.50;;;;;;;;;;5026781;28;41633;-71
2024/01/23 09:35:57;;;;;;;9.20;2.15;;;;;;;;;;5026291;28;41340;-71
2024/01/23 09:38:27;;;;;;;7.00;2.30;;;;;;;;;;5016615;28;41608;-71
2024/01/23 09:40:54;;;;;;;6.63;2.17;;;;;;;;;;5026242;28;42423;-71
2024/01/23 09:43:22;;;;;;;10.00;2.55;;;;;;;;;;5025992;28;42197;-72
2024/01/23 09:45:51;;;;;;;14.07;3.15;;;;;;;;;;5017800;28;41944;-71
2024/01/23 09:48:20;;;;;;;10.32;2.83;;;;;;;;;;5023980;28;41452;-71
2024/01/23 09:50:53;;;;;;;8.95;2.60;;;;;;;;;;5026191;28;42193;-71
2024/01/23 09:53:23;;;;;;;7.90;2.40;;;;;;;;;;5024698;28;41540;-71
2024/01/23 09:55:52;;;;;;;9.15;2.38;;;;;;;;;;5025812;28;40933;-70
2024/01/23 09:58:20;;;;;;;13.07;3.63;;;;;;;;;;5026750;28;41518;-72
2024/01/23 10:00:48;;;;;;;8.00;2.78;;;;;;;;;;5025704;28;40681;-72
2024/01/23 10:03:16;;;;;;;8.80;2.80;;;;;;;;;;5025170;28;41934;-75
2024/01/23 10:05:44;;;;;;;9.65;2.53;;;;;;;;;;5020533;28;40298;-74
2024/01/23 10:08:12;;;;;;;11.10;2.78;;;;;;;;;;5022835;28;41379;-74
2024/01/23 10:10:40;;;;;;;7.93;2.83;;;;;;;;;;5024456;28;41356;-74
2024/01/23 10:13:10;;;;;;;10.60;3.72;;;;;;;;;;5019218;28;41966;-79
2024/01/23 10:15:38;;;;;;;9.23;2.97;;;;;;;;;;5016229;28;42622;-75
2024/01/23 10:18:06;;;;;;;11.77;3.15;;;;;;;;;;5014843;28;41366;-77
2024/01/23 10:20:37;;;;;;;11.30;3.10;;;;;;;;;;5017860;28;43176;-79
2024/01/23 10:23:05;;;;;;;12.60;2.80;;;;;;;;;;5018744;28;41671;-75
2024/01/23 10:25:33;;;;;;;13.00;6.22;;;;;;;;;;5015456;28;41611;-71
2024/01/23 10:28:01;;;;;;;11.07;3.90;;;;;;;;;;5010525;28;40706;-75
2024/01/23 10:30:30;;;;;;;15.57;4.65;;;;;;;;;;5013640;28;42608;-75
2024/01/23 10:32:59;;;;;;;20.42;4.50;;;;;;;;;;5005918;28;43103;-75
2024/01/23 10:35:27;;;;;;;25.73;18.88;;;;;;;;;;5018522;28;41220;-74
2024/01/23 10:37:55;;;;;;;15.05;6.97;;;;;;;;;;5012916;28;41201;-75
2024/01/23 10:40:24;;;;;;;16.75;6.53;;;;;;;;;;5023302;28;42816;-69
2024/01/23 10:42:52;;;;;;;14.60;4.80;;;;;;;;;;5016550;28;40758;-68
2024/01/23 10:45:20;;;;;;;16.95;6.00;;;;;;;;;;5010338;28;42311;-69
2024/01/23 10:47:51;;;;;;;13.68;5.18;;;;;;;;;;5019712;28;41995;-68
2024/01/23 10:50:20;;;;;;;14.02;5.00;;;;;;;;;;5024957;28;41517;-68
2024/01/23 10:52:48;;;;;;;12.80;4.28;;;;;;;;;;5024617;28;42362;-68
2024/01/23 10:55:18;;;;;;;14.48;4.72;;;;;;;;;;5024307;28;40800;-68
2024/01/23 10:57:47;;;;;;;13.95;4.93;;;;;;;;;;5017337;28;41720;-68
2024/01/23 11:00:17;;;;;;;12.10;5.43;;;;;;;;;;5007360;28;43916;-69
2024/01/23 11:02:46;;;;;;;13.27;4.43;;;;;;;;;;5018272;28;41321;-69
2024/01/23 11:05:16;;;;;;;15.60;4.22;;;;;;;;;;5021859;28;41252;-68
2024/01/23 11:07:46;;;;;;;11.48;4.00;;;;;;;;;;5023393;28;42344;-69
2024/01/23 11:10:16;;;;;;;10.95;3.70;;;;;;;;;;5008821;28;42589;-68
2024/01/23 11:12:50;;;;;;;15.40;3.80;;;;;;;;;;5007311;28;43353;-68
2024/01/23 11:15:18;;;;;;;8.48;3.58;;;;;;;;;;5020135;28;42022;-68
2024/01/23 11:17:47;;;;;;;14.80;4.35;;;;;;;;;;5017200;28;41939;-68
2024/01/23 11:20:18;;;;;;;15.10;3.75;;;;;;;;;;5007630;28;43183;-69
2024/01/23 11:22:46;;;;;;;12.95;4.13;;;;;;;;;;5014342;28;41406;-68
2024/01/23 11:25:16;;;;;;;6.65;2.55;;;;;;;;;;5021878;28;42242;-68
2024/01/23 11:27:46;;;;;;;11.23;3.55;;;;;;;;;;5020026;28;41877;-69
2024/01/23 11:30:14;;;;;;;10.77;2.97;;;;;;;;;;5010041;28;41504;-68
2024/01/23 11:32:42;;;;;;;9.48;3.17;;;;;;;;;;5017857;28;41775;-68
2024/01/23 11:35:12;;;;;;;12.85;3.90;;;;;;;;;;5014834;28;42000;-69
2024/01/23 11:37:47;;;;;;;10.07;3.42;;;;;;;;;;5012386;28;41530;-68
2024/01/23 11:40:30;;;;;;;13.30;3.85;;;;;;;;;;5022168;28;42021;-68
2024/01/23 11:42:59;;;;;;;10.23;3.05;;;;;;;;;;5021336;28;42057;-68
2024/01/23 11:45:27;;;;;;;13.70;3.90;;;;;;;;;;5008987;28;42031;-68
2024/01/23 11:47:56;;;;;;;14.07;3.20;;;;;;;;;;5019679;28;42690;-68
2024/01/23 11:50:25;;;;;;;10.95;3.35;;;;;;;;;;5022807;28;41702;-68
2024/01/23 11:52:54;;;;;;;12.57;3.50;;;;;;;;;;5019405;28;43035;-68
2024/01/23 11:55:22;;;;;;;13.05;3.38;;;;;;;;;;5021887;28;40981;-68
2024/01/23 11:57:53;;;;;;;9.40;2.97;;;;;;;;;;5021317;28;42432;-69
2024/01/23 12:00:22;;;;;;;9.90;2.67;;;;;;;;;;5011198;28;41674;-70
2024/01/23 12:02:53;;;;;;;14.20;3.17;;;;;;;;;;5020465;28;40718;-69
2024/01/23 12:05:20;;;;;;;6.82;2.17;;;;;;;;;;5017058;28;41218;-72
2024/01/23 12:07:49;;;;;;;12.70;2.78;;;;;;;;;;5018303;28;42603;-68
2024/01/23 12:10:18;;;;;;;8.68;3.10;;;;;;;;;;5019367;28;42065;-69
2024/01/23 12:12:46;;;;;;;9.15;2.70;;;;;;;;;;5013764;28;43337;-70
2024/01/23 12:15:14;;;;;;;15.23;3.58;;;;;;;;;;5019925;28;42311;-69
2024/01/23 12:17:46;;;;;;;14.60;3.17;;;;;;;;;;5016718;28;41211;-70
2024/01/23 12:20:14;;;;;;;11.50;2.75;;;;;;;;;;5010930;28;41757;-71
2024/01/23 12:22:42;;;;;;;7.63;2.55;;;;;;;;;;5015548;28;42384;-70
2024/01/23 12:25:10;;;;;;;12.38;3.42;;;;;;;;;;5013703;28;41662;-70
2024/01/23 12:27:40;;;;;;;6.93;2.50;;;;;;;;;;5017932;28;40984;-70
2024/01/23 12:30:10;;;;;;;6.60;2.50;;;;;;;;;;5020972;28;41994;-70
2024/01/23 12:32:38;;;;;;;9.50;2.72;;;;;;;;;;5025798;28;41698;-70
2024/01/23 12:35:08;;;;;;;8.95;2.92;;;;;;;;;;5022439;28;40976;-70
2024/01/23 12:37:39;;;;;;;10.32;3.03;;;;;;;;;;5012718;28;42399;-70
2024/01/23 12:40:09;;;;;;;16.00;4.00;;;;;;;;;;5023820;28;41748;-70
2024/01/23 12:42:39;;;;;;;21.30;3.80;;;;;;;;;;5025700;28;40961;-70
2024/01/23 12:45:11;;;;;;;13.00;4.38;;;;;;;;;;5019154;28;41012;-70
2024/01/23 12:47:41;;;;;;;10.02;2.83;;;;;;;;;;5013448;28;41562;-70
2024/01/23 12:50:16;;;;;;;6.93;2.40;;;;;;;;;;5024964;28;41301;-70
2024/01/23 12:52:43;;;;;;;12.05;3.03;;;;;;;;;;5025672;28;41081;-69
2024/01/23 12:55:14;;;;;;;9.27;2.45;;;;;;;;;;5015487;28;42133;-69
2024/01/23 12:57:42;;;;;;;9.25;2.75;;;;;;;;;;5020868;28;41883;-70
2024/01/23 13:00:12;;;;;;;12.32;3.97;;;;;;;;;;5025177;28;42079;-70
2024/01/23 13:02:40;;;;;;;9.70;2.58;;;;;;;;;;5024222;28;42391;-70
2024/01/23 13:05:09;;;;;;;13.27;3.72;;;;;;;;;;5025493;28;41368;-70
2024/01/23 13:07:39;;;;;;;8.75;2.75;;;;;;;;;;5025333;28;41550;-70
2024/01/23 13:10:07;;;;;;;9.10;2.88;;;;;;;;;;5009851;28;41157;-70
2024/01/23 13:12:36;;;;;;;10.07;3.20;;;;;;;;;;5024280;28;42113;-70
2024/01/23 13:15:05;;;;;;;12.65;2.90;;;;;;;;;;5006411;28;41695;-70
2024/01/23 13:17:35;;;;;;;8.40;2.95;;;;;;;;;;5016624;28;42856;-70
2024/01/23 13:20:09;;;;;;;10.80;3.28;;;;;;;;;;5020616;28;41622;-70
2024/01/23 13:22:39;;;;;;;10.45;3.38;;;;;;;;;;5013813;28;40834;-70
2024/01/23 13:25:07;;;;;;;9.90;2.92;;;;;;;;;;5015066;28;40900;-70
2024/01/23 13:27:36;;;;;;;7.13;2.33;;;;;;;;;;5018648;28;42024;-70
2024/01/23 13:30:07;;;;;;;8.70;3.42;;;;;;;;;;5024005;28;40853;-70
2024/01/23 13:32:36;;;;;;;9.77;3.17;;;;;;;;;;5019041;28;41207;-70
2024/01/23 13:35:05;;;;;;;10.23;3.58;;;;;;;;;;5018905;28;42416;-70
2024/01/23 13:37:33;;;;;;;7.85;3.13;;;;;;;;;;5022851;28;40799;-70
2024/01/23 13:40:01;;;;;;;10.32;2.58;;;;;;;;;;5023240;28;43150;-70
2024/01/23 13:42:29;;;;;;;9.00;2.67;;;;;;;;;;5016430;28;42345;-69
2024/01/23 13:44:57;;;;;;;9.35;3.45;;;;;;;;;;5007837;28;41457;-70
2024/01/23 13:47:25;;;;;;;11.32;3.67;;;;;;;;;;5014021;28;41495;-69
2024/01/23 13:50:00;;;;;;;8.93;2.67;;;;;;;;;;5023847;28;40861;-69
2024/01/23 13:52:28;;;;;;;9.73;2.97;;;;;;;;;;5015726;28;42357;-69
2024/01/23 13:54:55;;;;;;;12.98;4.05;;;;;;;;;;5014481;28;42013;-69
2024/01/23 13:57:23;;;;;;;12.15;2.97;;;;;;;;;;5016799;28;42393;-68
2024/01/23 13:59:51;;;;;;;8.25;2.33;;;;;;;;;;5016893;28;40986;-68
2024/01/23 14:02:18;;;;;;;7.07;2.30;;;;;;;;;;5009292;28;41923;-77
2024/01/23 14:04:47;;;;;;;11.57;3.42;;;;;;;;;;5004578;28;42463;-69
2024/01/23 14:07:17;;;;;;;11.80;3.63;;;;;;;;;;5004457;28;42479;-69
2024/01/23 14:09:46;;;;;;;7.75;2.50;;;;;;;;;;5018238;28;41409;-69
2024/01/23 14:12:14;;;;;;;7.35;2.65;;;;;;;;;;5007284;28;42192;-69
2024/01/23 14:14:41;;;;;;;9.02;3.30;;;;;;;;;;5018065;28;41879;-69
2024/01/23 14:17:09;;;;;;;10.63;3.67;;;;;;;;;;5017759;28;42100;-69
2024/01/23 14:19:37;;;;;;;14.00;3.20;;;;;;;;;;5009071;28;41271;-69
2024/01/23 14:22:10;;;;;;;11.23;3.22;;;;;;;;;;5008220;28;41682;-69
2024/01/23 14:24:40;;;;;;;9.30;2.60;;;;;;;;;;5018149;28;42616;-69
2024/01/23 14:27:08;;;;;;;9.43;2.65;;;;;;;;;;5012968;28;41487;-69
2024/01/23 14:29:36;;;;;;;9.85;3.10;;;;;;;;;;5011344;28;40971;-69
2024/01/23 14:32:05;;;;;;;8.73;2.97;;;;;;;;;;5018807;28;41661;-69
2024/01/23 14:34:33;;;;;;;8.73;2.72;;;;;;;;;;5011531;28;41849;-69
2024/01/23 14:37:01;;;;;;;9.35;2.97;;;;;;;;;;5022959;28;40694;-69
2024/01/23 14:39:30;;;;;;;12.57;2.95;;;;;;;;;;5024301;28;41117;-69
2024/01/23 14:42:01;;;;;;;10.90;2.70;;;;;;;;;;5018246;28;41521;-67
2024/01/23 14:44:30;;;;;;;12.30;3.63;;;;;;;;;;5022041;28;41410;-71
2024/01/23 14:47:04;;;;;;;11.75;3.55;;;;;;;;;;5003230;28;42085;-68